This is the latest recevied weather packets stored in our database for station/object KK4KTV-13. If no packets are shown the sender has not sent any weather packets the latest 10 day(s).
| Time | Temp. | Humidity | Pressure | Rain* | Wind** | Luminosity | Snow |
|---|---|---|---|---|---|---|---|
| 1778071552 | 11.11° C | 99% | 1009.6 hPa | 0 mm | - | 37 W/m² | - |
| 1778071250 | 11.11° C | 99% | 1009.7 hPa | 0 mm | - | 37 W/m² | - |
| 1778070947 | 11.11° C | 99% | 1009.6 hPa | 0 mm | - | 28 W/m² | - |
| 1778070645 | 11.11° C | 99% | 1009.5 hPa | 1.27 mm | - | 20 W/m² | - |
| 1778070342 | 11.11° C | 99% | 1009.6 hPa | 1.27 mm | - | 20 W/m² | - |
| 1778070040 | 11.67° C | 99% | 1009.5 hPa | 3.05 mm | - | 11 W/m² | - |
| 1778069737 | 11.67° C | 99% | 1009.5 hPa | 3.05 mm | - | 10 W/m² | - |
| 1778069433 | 12.22° C | 99% | 1009.4 hPa | 1.78 mm | - | 6 W/m² | - |
| 1778069131 | 12.22° C | 99% | 1009.8 hPa | 3.56 mm | - | 6 W/m² | - |
| 1778068828 | 12.22° C | 99% | 1008.7 hPa | 1.78 mm | - | 20 W/m² | - |
| 1778068527 | 12.22° C | 99% | 1008.2 hPa | 0 mm | - | 20 W/m² | - |
| 1778068224 | 12.22° C | 99% | 1008.4 hPa | 4.32 mm | - | 13 W/m² | - |
| 1778067921 | 12.78° C | 99% | 1008.4 hPa | 4.83 mm | - | 12 W/m² | - |
| 1778067620 | 12.78° C | 99% | 1008.6 hPa | 1.27 mm | - | 9 W/m² | - |
| 1778067317 | 13.33° C | 99% | 1008.4 hPa | 6.1 mm | - | 7 W/m² | - |
| 1778067015 | 13.33° C | 99% | 1008.7 hPa | 4.32 mm | - | 6 W/m² | - |
| 1778066711 | 13.89° C | 99% | 1008.4 hPa | 0 mm | - | 4 W/m² | - |
| 1778066408 | 13.89° C | 99% | 1008.3 hPa | 0 mm | - | 7 W/m² | - |
| 1778066106 | 13.89° C | 99% | 1008.2 hPa | 0 mm | - | 7 W/m² | - |
| 1778065803 | 13.89° C | 99% | 1008.1 hPa | 0 mm | - | 6 W/m² | - |
| 1778065501 | 13.89° C | 99% | 1008 hPa | 0 mm | - | 5 W/m² | - |
| 1778065197 | 14.44° C | 99% | 1007.8 hPa | 0 mm | - | 1 W/m² | - |
| 1778064894 | 14.44° C | 99% | 1007.7 hPa | 0 mm | - | 1 W/m² | - |
| 1778064591 | 14.44° C | 99% | 1007.6 hPa | 1.78 mm | - | 1 W/m² | - |
| 1778064289 | 14.44° C | 99% | 1007.6 hPa | 4.83 mm | - | 1 W/m² | - |
* Rain latest hour (hover to see other rain measurements)
** Current wind speed in m/s (hover to see current wind gust speed)